Time;durP1;ratioP1;P1;durP2;ratioP2;P2;SDS_P1;SDS_P2;PMS_P1;PMS_P2;Temp;Humidity;BMP_temperature;BMP_pressure;BME280_temperature;BME280_humidity;BME280_pressure;Samples;Min_cycle;Max_cycle;Signal;HPM_P1;HPM_P2
2023/07/02 00:01:52;;;;;;;46.00;23.83;;;19.00;93.30;;;;;;4115410;28;20055;-52
2023/07/02 00:03:54;;;;;;;50.75;24.02;;;18.90;93.40;;;;;;4115155;28;20073;-53
2023/07/02 00:05:57;;;;;;;50.90;24.40;;;18.90;93.90;;;;;;4115237;28;20050;-52
2023/07/02 00:08:00;;;;;;;48.42;23.83;;;18.90;93.60;;;;;;4115597;28;20074;-49
2023/07/02 00:10:03;;;;;;;48.20;23.80;;;18.90;93.60;;;;;;4115897;28;20050;-54
2023/07/02 00:12:08;;;;;;;56.07;24.03;;;18.80;93.50;;;;;;4115968;28;20047;-49
2023/07/02 00:14:10;;;;;;;47.85;23.23;;;18.70;93.50;;;;;;4105512;28;20457;-49
2023/07/02 00:16:13;;;;;;;49.30;24.63;;;18.70;93.70;;;;;;4114741;28;20461;-51
2023/07/02 00:18:16;;;;;;;50.15;23.05;;;18.70;93.80;;;;;;4115576;28;20050;-51
2023/07/02 00:20:19;;;;;;;48.72;23.23;;;18.70;93.90;;;;;;4116080;28;20180;-57
2023/07/02 00:22:21;;;;;;;49.45;24.13;;;18.60;93.90;;;;;;4116486;28;20078;-53
2023/07/02 00:24:25;;;;;;;51.17;24.08;;;18.60;94.00;;;;;;4117184;28;20054;-53
2023/07/02 00:26:28;;;;;;;49.97;24.95;;;18.60;94.00;;;;;;4099832;29;20444;-51
2023/07/02 00:28:30;;;;;;;48.95;24.90;;;18.50;94.20;;;;;;4117442;28;20034;-57
2023/07/02 00:30:32;;;;;;;55.50;24.83;;;18.50;94.20;;;;;;4116676;28;20071;-53
2023/07/02 00:32:34;;;;;;;60.10;27.05;;;18.40;94.30;;;;;;4115681;28;20047;-53
2023/07/02 00:34:36;;;;;;;43.92;23.15;;;18.40;94.50;;;;;;4115701;28;20062;-52
2023/07/02 00:36:38;;;;;;;48.63;23.13;;;18.30;94.50;;;;;;4114374;28;20082;-53
2023/07/02 00:38:42;;;;;;;47.25;23.65;;;18.30;94.50;;;;;;4115047;28;20047;-52
2023/07/02 00:40:45;;;;;;;59.20;26.35;;;18.30;94.50;;;;;;4115592;28;20463;-52
2023/07/02 00:42:48;;;;;;;49.00;24.67;;;18.10;94.70;;;;;;4115103;28;20075;-52
2023/07/02 00:44:52;;;;;;;55.85;26.25;;;18.10;94.80;;;;;;4115344;28;20896;-53
2023/07/02 00:46:54;;;;;;;52.87;25.73;;;18.10;94.80;;;;;;4113888;28;20054;-52
2023/07/02 00:48:58;;;;;;;54.95;26.27;;;18.10;95.00;;;;;;4114915;28;20102;-53
2023/07/02 00:51:01;;;;;;;52.97;27.75;;;18.10;95.00;;;;;;4105552;28;20126;-54
2023/07/02 00:53:03;;;;;;;53.22;25.80;;;18.10;94.90;;;;;;4101077;28;20051;-50
2023/07/02 00:55:06;;;;;;;51.30;26.15;;;18.10;95.00;;;;;;4101403;28;20047;-50
2023/07/02 00:57:10;;;;;;;57.10;27.15;;;18.00;95.10;;;;;;4114442;28;20408;-52
2023/07/02 00:59:12;;;;;;;55.08;26.60;;;18.00;95.10;;;;;;4114799;28;20054;-50
2023/07/02 01:01:16;;;;;;;65.55;33.50;;;18.00;95.30;;;;;;4115050;28;20043;-50
2023/07/02 01:03:18;;;;;;;66.38;34.33;;;17.90;95.30;;;;;;4115141;28;20371;-50
2023/07/02 01:05:21;;;;;;;67.28;32.35;;;17.90;95.40;;;;;;4115108;28;20573;-50
2023/07/02 01:07:23;;;;;;;57.90;29.63;;;17.90;95.50;;;;;;4114217;28;20085;-52
2023/07/02 01:09:26;;;;;;;52.47;26.23;;;17.90;95.50;;;;;;4115270;28;20049;-50
2023/07/02 01:11:31;;;;;;;52.45;27.95;;;17.80;95.70;;;;;;4115376;28;20051;-49
2023/07/02 01:13:34;;;;;;;54.42;26.92;;;17.80;95.80;;;;;;4115077;28;20125;-50
2023/07/02 01:15:37;;;;;;;56.25;27.20;;;17.70;95.90;;;;;;4114711;28;20066;-49
2023/07/02 01:17:42;;;;;;;58.17;27.67;;;17.60;96.00;;;;;;4114685;28;20505;-49
2023/07/02 01:19:51;;;;;;;55.17;27.38;;;17.70;96.00;;;;;;4115146;28;20039;-49
2023/07/02 01:21:53;;;;;;;64.63;28.98;;;17.70;96.10;;;;;;4115129;28;20043;-50
2023/07/02 01:23:55;;;;;;;59.38;28.85;;;17.70;96.20;;;;;;4116971;28;20050;-57
2023/07/02 01:25:59;;;;;;;63.42;32.28;;;17.60;96.30;;;;;;4110505;28;20046;-50
2023/07/02 01:28:02;;;;;;;58.92;30.15;;;17.50;96.50;;;;;;4115168;28;20139;-50
2023/07/02 01:30:06;;;;;;;60.13;31.88;;;17.50;96.60;;;;;;4114577;28;20458;-53
2023/07/02 01:32:09;;;;;;;64.50;30.70;;;17.50;96.80;;;;;;4114965;28;20452;-52
2023/07/02 01:34:11;;;;;;;68.70;34.08;;;17.50;96.80;;;;;;4115113;28;20058;-51
2023/07/02 01:36:14;;;;;;;63.22;32.83;;;17.40;96.90;;;;;;4113727;28;20051;-52
2023/07/02 01:38:17;;;;;;;67.45;31.70;;;17.30;97.00;;;;;;4114830;28;20053;-52
2023/07/02 01:40:19;;;;;;;56.95;29.45;;;17.30;97.10;;;;;;4113479;28;20042;-52
2023/07/02 01:42:21;;;;;;;55.55;26.63;;;17.40;97.10;;;;;;4106747;28;20082;-51
2023/07/02 01:44:23;;;;;;;55.15;27.25;;;17.30;97.20;;;;;;4114859;28;20570;-51
2023/07/02 01:46:25;;;;;;;52.03;25.73;;;17.40;97.30;;;;;;4113617;28;20243;-51
2023/07/02 01:48:27;;;;;;;52.13;25.80;;;17.30;97.30;;;;;;4114498;28;20113;-52
2023/07/02 01:50:29;;;;;;;51.42;24.23;;;17.30;97.40;;;;;;4121767;28;20077;-51
2023/07/02 01:52:33;;;;;;;53.90;24.55;;;17.30;97.50;;;;;;4114678;28;20051;-51
2023/07/02 01:54:36;;;;;;;55.90;23.02;;;17.20;97.50;;;;;;4113745;28;20046;-52
2023/07/02 01:56:38;;;;;;;55.17;23.05;;;17.20;97.50;;;;;;4113691;28;20047;-52
2023/07/02 01:58:40;;;;;;;49.85;22.45;;;17.20;97.50;;;;;;4114523;28;20506;-51
2023/07/02 02:00:43;;;;;;;50.33;24.10;;;17.20;97.70;;;;;;4114540;28;20117;-52
2023/07/02 02:02:45;;;;;;;53.25;23.70;;;17.20;97.90;;;;;;4103926;28;20125;-51
2023/07/02 02:04:50;;;;;;;57.92;23.65;;;17.20;97.80;;;;;;4114902;28;20047;-53
2023/07/02 02:06:52;;;;;;;48.70;23.70;;;17.10;98.00;;;;;;4113611;28;20043;-52
2023/07/02 02:08:55;;;;;;;57.38;24.33;;;17.00;98.00;;;;;;4114835;28;20046;-51
2023/07/02 02:10:58;;;;;;;52.65;24.55;;;17.20;98.10;;;;;;4114700;28;20109;-52
2023/07/02 02:13:00;;;;;;;53.47;21.50;;;17.10;98.30;;;;;;4114499;28;20445;-52
2023/07/02 02:15:02;;;;;;;48.85;22.80;;;17.10;98.30;;;;;;4113769;28;20047;-51
2023/07/02 02:17:05;;;;;;;50.05;23.50;;;17.00;98.40;;;;;;4113596;28;20102;-51
2023/07/02 02:19:07;;;;;;;50.90;23.30;;;17.00;98.60;;;;;;4115210;28;20106;-49
2023/07/02 02:21:09;;;;;;;53.30;24.08;;;17.10;98.50;;;;;;4116624;28;20055;-58
2023/07/02 02:23:12;;;;;;;55.80;24.17;;;17.00;98.60;;;;;;4117236;28;20130;-52
2023/07/02 02:25:15;;;;;;;45.58;22.00;;;17.00;98.60;;;;;;4114696;28;20066;-56
2023/07/02 02:27:17;;;;;;;53.65;21.98;;;17.00;98.80;;;;;;4114096;28;20051;-51
2023/07/02 02:29:19;;;;;;;54.22;24.00;;;16.90;98.80;;;;;;4117607;28;20105;-58
2023/07/02 02:31:22;;;;;;;52.92;21.83;;;16.90;99.20;;;;;;4117187;28;20201;-52
2023/07/02 02:33:24;;;;;;;47.20;21.55;;;16.90;99.00;;;;;;4117255;28;20922;-52
2023/07/02 02:35:26;;;;;;;47.10;21.58;;;16.80;99.10;;;;;;4117422;28;20051;-52
2023/07/02 02:37:29;;;;;;;49.47;24.13;;;16.80;99.00;;;;;;4116527;28;20067;-52
2023/07/02 02:39:33;;;;;;;53.72;23.90;;;16.90;99.10;;;;;;4117678;28;20074;-52
2023/07/02 02:41:37;;;;;;;51.70;22.38;;;16.90;99.20;;;;;;4116956;28;20050;-52
2023/07/02 02:43:41;;;;;;;51.17;23.23;;;16.90;99.20;;;;;;4117158;28;20437;-52
2023/07/02 02:45:43;;;;;;;49.88;22.08;;;16.90;99.10;;;;;;4117069;28;20489;-52
2023/07/02 02:47:46;;;;;;;49.03;22.60;;;16.90;99.20;;;;;;4098507;28;20498;-51
2023/07/02 02:49:48;;;;;;;51.60;23.73;;;16.70;99.40;;;;;;4102098;28;20505;-52
2023/07/02 02:51:52;;;;;;;46.53;21.75;;;16.80;99.50;;;;;;4117000;28;20102;-52
2023/07/02 02:53:54;;;;;;;55.78;22.00;;;16.80;99.50;;;;;;4116950;28;20068;-52
2023/07/02 02:55:56;;;;;;;47.60;22.30;;;16.80;99.40;;;;;;4117142;28;20051;-52
2023/07/02 02:58:00;;;;;;;55.97;23.00;;;16.90;99.60;;;;;;4116111;28;20117;-52
2023/07/02 03:00:02;;;;;;;51.35;21.73;;;16.90;99.50;;;;;;4117288;28;20054;-53
2023/07/02 03:02:04;;;;;;;49.05;22.23;;;16.80;99.60;;;;;;4117530;28;20055;-52
2023/07/02 03:04:08;;;;;;;51.35;22.33;;;16.80;99.80;;;;;;4116969;28;20051;-52
2023/07/02 03:06:11;;;;;;;55.47;21.00;;;16.80;99.80;;;;;;4117069;28;20050;-52
2023/07/02 03:08:13;;;;;;;54.20;22.85;;;16.70;99.90;;;;;;4116254;28;20101;-52
2023/07/02 03:10:15;;;;;;;49.80;21.08;;;16.70;99.90;;;;;;4116738;28;20047;-51
2023/07/02 03:12:17;;;;;;;46.75;21.70;;;16.70;99.90;;;;;;4117258;28;20049;-52
2023/07/02 03:14:21;;;;;;;52.90;23.15;;;16.70;99.90;;;;;;4116977;28;20043;-52
2023/07/02 03:16:23;;;;;;;47.75;22.02;;;16.70;99.90;;;;;;4116078;28;20069;-54
2023/07/02 03:18:25;;;;;;;51.38;20.65;;;16.70;99.90;;;;;;4116348;28;20098;-52
2023/07/02 03:20:27;;;;;;;45.47;20.10;;;16.70;99.90;;;;;;4115910;28;20047;-52
2023/07/02 03:22:29;;;;;;;49.97;21.60;;;16.60;99.90;;;;;;4101472;28;20069;-52
2023/07/02 03:24:31;;;;;;;52.60;22.73;;;16.60;99.90;;;;;;4099502;29;20054;-51
2023/07/02 03:26:33;;;;;;;51.75;21.55;;;16.60;99.90;;;;;;4115988;28;20047;-52
2023/07/02 03:28:36;;;;;;;50.75;21.17;;;16.60;99.90;;;;;;4116395;28;20042;-52
2023/07/02 03:30:39;;;;;;;50.97;20.80;;;16.50;99.90;;;;;;4117034;28;20456;-52
2023/07/02 03:32:41;;;;;;;51.50;21.83;;;16.50;99.90;;;;;;4117160;28;20412;-52
2023/07/02 03:34:45;;;;;;;45.15;19.55;;;16.50;99.90;;;;;;4116146;28;20081;-52
2023/07/02 03:36:47;;;;;;;45.90;20.05;;;16.50;99.90;;;;;;4115287;28;20057;-52
2023/07/02 03:38:49;;;;;;;51.63;20.08;;;16.50;99.90;;;;;;4116115;28;20135;-52
2023/07/02 03:40:51;;;;;;;53.10;21.15;;;16.50;99.90;;;;;;4115856;28;20042;-51
2023/07/02 03:42:53;;;;;;;49.10;21.05;;;16.50;99.90;;;;;;4116362;28;20042;-52
2023/07/02 03:44:55;;;;;;;50.13;20.75;;;16.50;99.90;;;;;;4116135;28;20079;-52
2023/07/02 03:46:59;;;;;;;50.65;20.15;;;16.40;99.90;;;;;;4115155;28;20065;-52
2023/07/02 03:49:01;;;;;;;47.90;19.65;;;16.40;99.90;;;;;;4114979;28;20652;-52
2023/07/02 03:51:03;;;;;;;42.00;19.58;;;16.40;99.90;;;;;;4114065;28;20408;-53
2023/07/02 03:53:05;;;;;;;48.90;21.92;;;16.40;99.90;;;;;;4116203;28;20080;-53
2023/07/02 03:55:08;;;;;;;57.47;21.45;;;16.50;99.90;;;;;;4114221;28;20051;-52
2023/07/02 03:57:10;;;;;;;49.33;20.05;;;16.40;99.90;;;;;;4115339;28;20138;-52
2023/07/02 03:59:12;;;;;;;46.70;19.95;;;16.50;99.90;;;;;;4116077;28;20057;-52
2023/07/02 04:01:14;;;;;;;45.75;19.70;;;16.50;99.90;;;;;;4112485;28;20082;-52
2023/07/02 04:03:19;;;;;;;46.58;20.67;;;16.50;99.90;;;;;;4116084;28;20047;-52
2023/07/02 04:05:21;;;;;;;52.35;21.38;;;16.40;99.90;;;;;;4098666;28;20050;-52
2023/07/02 04:07:23;;;;;;;45.17;19.73;;;16.50;99.90;;;;;;4114712;28;20078;-51
2023/07/02 04:09:25;;;;;;;56.35;21.95;;;16.50;99.90;;;;;;4115506;28;20055;-52
2023/07/02 04:11:28;;;;;;;48.50;19.90;;;16.50;99.90;;;;;;4115054;28;20050;-51
2023/07/02 04:13:30;;;;;;;46.72;20.17;;;16.50;99.90;;;;;;4116173;28;20043;-51
2023/07/02 04:15:32;;;;;;;51.75;20.63;;;16.50;99.90;;;;;;4115810;28;20039;-52
2023/07/02 04:17:34;;;;;;;52.88;19.83;;;16.50;99.90;;;;;;4115314;28;20047;-57
2023/07/02 04:19:38;;;;;;;53.55;21.30;;;16.50;99.90;;;;;;4101428;29;20058;-56
2023/07/02 04:21:40;;;;;;;51.65;20.30;;;16.60;99.90;;;;;;4118358;28;20075;-53
2023/07/02 04:23:43;;;;;;;51.28;21.30;;;16.50;99.90;;;;;;4117860;28;20138;-50
2023/07/02 04:25:45;;;;;;;47.35;19.17;;;16.50;99.90;;;;;;4115822;28;20043;-56
2023/07/02 04:28:08;;;;;;;46.50;18.88;;;16.50;99.90;;;;;;4114883;28;20051;-51
2023/07/02 04:30:10;;;;;;;49.08;19.13;;;16.50;99.90;;;;;;4115699;28;20077;-51
2023/07/02 04:32:13;;;;;;;47.50;19.65;;;16.60;99.90;;;;;;4114608;28;20429;-53
2023/07/02 04:34:15;;;;;;;44.92;19.90;;;16.50;99.90;;;;;;4115923;28;20067;-52
2023/07/02 04:36:18;;;;;;;45.10;18.20;;;16.50;99.90;;;;;;4115526;28;20161;-51
2023/07/02 04:38:20;;;;;;;46.67;18.88;;;16.60;99.90;;;;;;4114396;28;20053;-51
2023/07/02 04:40:23;;;;;;;47.78;18.77;;;16.70;99.90;;;;;;4115773;28;20508;-52
2023/07/02 04:42:27;;;;;;;46.78;19.63;;;16.70;99.90;;;;;;4115538;28;20141;-53
2023/07/02 04:44:29;;;;;;;;;;;16.70;99.90;;;;;;4100588;28;20048;-52
2023/07/02 04:46:31;;;;;;;47.67;19.02;;;16.70;99.90;;;;;;4106880;28;19922;-52
2023/07/02 04:48:34;;;;;;;39.25;17.52;;;16.80;99.90;;;;;;4115243;28;20447;-51
2023/07/02 04:50:36;;;;;;;44.88;17.20;;;16.80;99.90;;;;;;4129140;28;20050;-54
2023/07/02 04:52:39;;;;;;;38.17;17.73;;;16.80;99.90;;;;;;4115969;28;20047;-53
2023/07/02 04:54:41;;;;;;;44.63;18.20;;;16.80;99.90;;;;;;4115853;28;20058;-53
2023/07/02 04:56:43;;;;;;;39.13;17.08;;;16.90;99.90;;;;;;4116186;28;20081;-64
2023/07/02 04:58:45;;;;;;;39.63;17.88;;;16.90;99.90;;;;;;4116289;28;20109;-54
2023/07/02 05:00:48;;;;;;;41.38;18.08;;;16.90;99.90;;;;;;4116724;28;20047;-55
2023/07/02 05:02:50;;;;;;;50.47;19.05;;;16.80;99.90;;;;;;4115814;28;20086;-52
2023/07/02 05:04:53;;;;;;;52.63;18.67;;;16.70;99.90;;;;;;4114318;28;20061;-53
2023/07/02 05:06:55;;;;;;;41.13;18.63;;;16.70;99.90;;;;;;4114458;28;20042;-52
2023/07/02 05:08:58;;;;;;;42.95;18.60;;;16.70;99.90;;;;;;4104939;28;20170;-52
2023/07/02 05:11:02;;;;;;;45.83;18.48;;;16.70;99.90;;;;;;4115181;28;20047;-52
2023/07/02 05:13:04;;;;;;;42.08;17.40;;;16.80;99.90;;;;;;4115099;28;20054;-52
2023/07/02 05:15:07;;;;;;;42.85;18.15;;;16.80;99.90;;;;;;4115202;28;20047;-53
2023/07/02 05:17:09;;;;;;;42.58;17.70;;;16.80;99.90;;;;;;4114160;28;20051;-52
2023/07/02 05:19:11;;;;;;;34.97;17.20;;;16.80;99.90;;;;;;4114856;28;20441;-52
2023/07/02 05:21:18;;;;;;;39.03;17.70;;;16.90;99.90;;;;;;4115106;28;20057;-52
2023/07/02 05:23:21;;;;;;;52.58;18.75;;;17.00;99.90;;;;;;4114907;28;20055;-54
2023/07/02 05:25:24;;;;;;;53.38;18.30;;;17.10;99.90;;;;;;4113791;28;20413;-51
2023/07/02 05:27:27;;;;;;;46.65;19.02;;;17.20;99.90;;;;;;4114119;28;20053;-51
2023/07/02 05:29:29;;;;;;;44.67;18.00;;;17.30;99.90;;;;;;4115142;28;20057;-51
2023/07/02 05:31:31;;;;;;;52.15;19.63;;;17.30;99.90;;;;;;4115359;28;20054;-52
2023/07/02 05:33:33;;;;;;;45.78;18.88;;;17.30;99.90;;;;;;4114893;28;20054;-52
2023/07/02 05:35:35;;;;;;;42.40;16.63;;;17.40;99.90;;;;;;4115426;28;20043;-55
2023/07/02 05:37:37;;;;;;;45.47;16.38;;;17.40;99.90;;;;;;4119125;28;20126;-52
2023/07/02 05:39:39;;;;;;;41.40;18.08;;;17.40;99.90;;;;;;4118569;28;20055;-52
2023/07/02 05:41:43;;;;;;;45.58;18.67;;;17.40;99.90;;;;;;4115475;28;20070;-52
2023/07/02 05:43:45;;;;;;;42.60;17.40;;;17.40;99.90;;;;;;4116765;28;20074;-53
2023/07/02 05:45:51;;;;;;;39.08;17.10;;;17.50;99.90;;;;;;4118965;28;20129;-51
2023/07/02 05:47:53;;;;;;;40.72;17.65;;;17.40;99.90;;;;;;4116799;28;20051;-59
2023/07/02 05:49:55;;;;;;;45.72;17.33;;;17.50;99.90;;;;;;4113996;28;20043;-53
2023/07/02 05:51:57;;;;;;;41.90;16.52;;;17.60;99.80;;;;;;4102028;29;20043;-53
2023/07/02 05:53:59;;;;;;;40.50;17.02;;;17.50;99.80;;;;;;4113080;28;20078;-52
2023/07/02 05:56:02;;;;;;;34.40;15.57;;;17.50;99.80;;;;;;4115941;28;20057;-56
2023/07/02 05:58:06;;;;;;;40.92;15.52;;;17.60;99.90;;;;;;4116799;28;20043;-52
2023/07/02 06:00:09;;;;;;;44.87;16.73;;;17.70;99.70;;;;;;4119418;28;20068;-56
2023/07/02 06:02:11;;;;;;;40.53;16.48;;;17.60;99.50;;;;;;4118521;28;20053;-56
2023/07/02 06:04:14;;;;;;;35.15;15.52;;;17.70;99.60;;;;;;4120677;28;20049;-58
2023/07/02 06:06:16;;;;;;;45.35;17.90;;;17.70;99.50;;;;;;4121864;28;20042;-52
2023/07/02 06:08:18;;;;;;;36.72;16.20;;;17.70;99.80;;;;;;4118835;28;20049;-53
2023/07/02 06:10:21;;;;;;;37.42;16.65;;;17.80;99.50;;;;;;4120504;28;20054;-52
2023/07/02 06:12:23;;;;;;;39.65;16.67;;;17.80;99.40;;;;;;4105162;29;20051;-55
2023/07/02 06:14:26;;;;;;;41.45;17.13;;;17.90;99.20;;;;;;4111925;28;20051;-61
2023/07/02 06:16:30;;;;;;;44.75;16.85;;;17.90;99.20;;;;;;4120533;28;20054;-66
2023/07/02 06:18:32;;;;;;;42.00;16.85;;;18.00;99.10;;;;;;4119233;28;20121;-57
2023/07/02 06:20:34;;;;;;;41.25;17.15;;;18.00;99.20;;;;;;4120062;28;20485;-60
2023/07/02 06:22:36;;;;;;;42.20;16.42;;;18.10;99.20;;;;;;4119721;28;20049;-54
2023/07/02 06:24:38;;;;;;;46.97;17.20;;;18.10;99.00;;;;;;4119912;28;20042;-59
2023/07/02 06:26:40;;;;;;;35.13;16.38;;;18.10;98.80;;;;;;4118735;28;20043;-52
2023/07/02 06:28:43;;;;;;;36.67;17.08;;;18.30;98.90;;;;;;4117918;28;20099;-65
2023/07/02 06:30:46;;;;;;;44.60;16.83;;;18.30;98.50;;;;;;4119993;28;20082;-52
2023/07/02 06:32:49;;;;;;;37.17;17.07;;;18.30;98.40;;;;;;4119588;28;20086;-56
2023/07/02 06:34:51;;;;;;;39.22;17.30;;;18.20;98.60;;;;;;4117658;28;20051;-53
2023/07/02 06:36:53;;;;;;;41.35;16.95;;;18.20;98.60;;;;;;4107412;28;20134;-56
2023/07/02 06:38:55;;;;;;;40.42;17.08;;;18.30;98.60;;;;;;4118616;28;20569;-59
2023/07/02 06:40:57;;;;;;;38.45;17.23;;;18.30;98.60;;;;;;4118038;28;20055;-53
2023/07/02 06:42:59;;;;;;;36.90;16.02;;;18.30;98.50;;;;;;4116035;28;20121;-52
2023/07/02 06:45:01;;;;;;;41.90;16.48;;;18.40;98.50;;;;;;4117397;28;20125;-52
2023/07/02 06:47:05;;;;;;;42.72;17.55;;;18.50;98.60;;;;;;4116222;28;20057;-53
2023/07/02 06:49:07;;;;;;;41.88;16.58;;;18.50;98.50;;;;;;4118257;28;20456;-52
2023/07/02 06:51:14;;;;;;;31.88;14.57;;;18.50;98.40;;;;;;4121081;28;20078;-57
2023/07/02 06:53:16;;;;;;;37.92;15.73;;;18.50;98.40;;;;;;4117033;28;20090;-52
2023/07/02 06:55:18;;;;;;;40.50;15.75;;;18.60;98.40;;;;;;4116711;28;20111;-52
2023/07/02 06:57:20;;;;;;;40.33;16.00;;;18.70;98.30;;;;;;4115938;28;20055;-52
2023/07/02 06:59:23;;;;;;;33.50;14.45;;;18.70;98.10;;;;;;4117045;28;20051;-52
2023/07/02 07:01:25;;;;;;;37.40;16.23;;;18.80;98.10;;;;;;4116719;28;20046;-53
2023/07/02 07:03:28;;;;;;;45.38;17.58;;;18.90;97.90;;;;;;4116649;28;20496;-52
2023/07/02 07:05:31;;;;;;;35.33;16.02;;;18.80;97.70;;;;;;4117037;28;20061;-52
2023/07/02 07:07:33;;;;;;;39.90;16.50;;;18.80;97.80;;;;;;4115672;28;20046;-52
2023/07/02 07:09:35;;;;;;;38.50;16.13;;;18.90;97.90;;;;;;4116624;28;20504;-52
2023/07/02 07:11:37;;;;;;;44.20;17.00;;;18.90;97.90;;;;;;4116880;28;20049;-52
2023/07/02 07:13:41;;;;;;;32.22;15.00;;;19.00;97.90;;;;;;4116596;28;20090;-52
2023/07/02 07:15:44;;;;;;;37.78;16.88;;;18.90;97.50;;;;;;4116667;28;20098;-52
2023/07/02 07:17:46;;;;;;;37.53;15.77;;;18.90;97.80;;;;;;4115604;28;20281;-52
2023/07/02 07:19:50;;;;;;;39.30;16.10;;;19.00;97.40;;;;;;4117021;28;20046;-52
2023/07/02 07:21:52;;;;;;;40.90;16.80;;;19.10;97.70;;;;;;4116519;28;20064;-53
2023/07/02 07:23:54;;;;;;;35.08;15.00;;;19.10;97.40;;;;;;4116631;28;20461;-52
2023/07/02 07:25:56;;;;;;;44.20;17.52;;;19.20;97.20;;;;;;4116763;28;20046;-52
2023/07/02 07:27:59;;;;;;;32.58;14.93;;;19.20;97.30;;;;;;4115440;28;20047;-52
2023/07/02 07:30:01;;;;;;;38.75;17.02;;;19.20;97.20;;;;;;4116906;28;20187;-51
2023/07/02 07:32:05;;;;;;;37.60;15.90;;;19.30;96.90;;;;;;4116204;28;20057;-53
2023/07/02 07:34:07;;;;;;;38.20;17.08;;;19.50;96.90;;;;;;4116585;28;20102;-52
2023/07/02 07:36:10;;;;;;;41.08;16.33;;;19.60;96.50;;;;;;4116514;28;20043;-52
2023/07/02 07:38:14;;;;;;;40.92;17.38;;;19.70;96.30;;;;;;4115233;28;20466;-49
2023/07/02 07:40:16;;;;;;;35.05;16.58;;;19.80;96.40;;;;;;4116532;28;20051;-50
2023/07/02 07:42:18;;;;;;;39.65;16.85;;;20.20;96.30;;;;;;4116114;28;20038;-50
2023/07/02 07:44:20;;;;;;;36.40;15.82;;;20.20;95.80;;;;;;4116133;28;20424;-50
2023/07/02 07:46:22;;;;;;;37.40;16.30;;;20.20;95.60;;;;;;4115830;28;20288;-50
2023/07/02 07:48:26;;;;;;;34.47;15.40;;;20.30;95.20;;;;;;4114778;28;20038;-51
2023/07/02 07:50:28;;;;;;;37.30;16.17;;;20.40;95.30;;;;;;4116181;28;20062;-51
2023/07/02 07:52:32;;;;;;;35.80;16.05;;;20.50;95.40;;;;;;4115842;28;20047;-50
2023/07/02 07:54:35;;;;;;;41.20;16.60;;;20.70;95.20;;;;;;4116078;28;20109;-50
2023/07/02 07:56:37;;;;;;;34.28;14.52;;;20.70;94.60;;;;;;4115868;28;20054;-50
2023/07/02 07:58:39;;;;;;;38.38;15.50;;;20.70;94.30;;;;;;4114770;28;20448;-53
2023/07/02 08:00:41;;;;;;;34.75;15.75;;;20.70;94.50;;;;;;4116035;28;20054;-52
2023/07/02 08:02:45;;;;;;;38.67;16.42;;;20.70;94.30;;;;;;4114778;28;20120;-53
2023/07/02 08:04:47;;;;;;;30.67;15.20;;;20.80;94.50;;;;;;4116030;28;20039;-52
2023/07/02 08:06:49;;;;;;;34.15;15.48;;;20.90;94.70;;;;;;4115829;28;20069;-51
2023/07/02 08:08:52;;;;;;;36.33;16.27;;;20.90;94.60;;;;;;4114717;28;20047;-50
2023/07/02 08:10:54;;;;;;;32.78;15.90;;;21.00;94.40;;;;;;4115649;28;20078;-50
2023/07/02 08:12:56;;;;;;;37.40;15.73;;;21.00;93.90;;;;;;4115496;28;20101;-50
2023/07/02 08:14:58;;;;;;;34.15;16.60;;;20.90;93.70;;;;;;4115655;28;20047;-50
2023/07/02 08:17:00;;;;;;;33.90;15.30;;;20.70;93.60;;;;;;4116024;28;20528;-51
2023/07/02 08:19:02;;;;;;;33.08;15.48;;;20.80;93.50;;;;;;4114587;28;20055;-51
2023/07/02 08:21:06;;;;;;;34.13;16.08;;;21.00;93.50;;;;;;4115882;28;20081;-50
2023/07/02 08:23:08;;;;;;;37.58;15.85;;;21.10;93.60;;;;;;4114385;28;20126;-50
2023/07/02 08:25:11;;;;;;;31.92;15.80;;;21.10;93.80;;;;;;4112826;28;20463;-50
2023/07/02 08:27:16;;;;;;;34.53;14.85;;;20.90;93.20;;;;;;4115763;28;20733;-52
2023/07/02 08:29:18;;;;;;;39.13;16.38;;;20.90;93.30;;;;;;4114346;28;20497;-52
2023/07/02 08:31:20;;;;;;;31.55;15.18;;;20.70;93.20;;;;;;4115456;28;20408;-52
2023/07/02 08:33:22;;;;;;;34.72;16.17;;;20.90;93.30;;;;;;4115055;28;20053;-52
2023/07/02 08:35:24;;;;;;;35.05;16.00;;;21.00;93.50;;;;;;4112096;28;20058;-49
2023/07/02 08:37:27;;;;;;;32.05;14.73;;;21.30;93.00;;;;;;4097584;29;20153;-50
2023/07/02 08:39:29;;;;;;;29.17;13.45;;;21.50;92.90;;;;;;4114994;28;20121;-50
2023/07/02 08:41:42;;;;;;;28.52;13.55;;;21.50;92.40;;;;;;4115525;28;20078;-51
2023/07/02 08:43:44;;;;;;;36.60;15.02;;;21.50;92.10;;;;;;4115113;28;20051;-52
2023/07/02 08:45:47;;;;;;;33.65;14.57;;;21.60;92.00;;;;;;4115090;28;20058;-53
2023/07/02 08:47:50;;;;;;;34.42;15.07;;;21.70;92.00;;;;;;4114649;28;20078;-50
2023/07/02 08:49:53;;;;;;;34.50;15.63;;;21.80;92.10;;;;;;4108571;28;20108;-51
2023/07/02 08:51:55;;;;;;;33.08;14.40;;;21.80;92.00;;;;;;4115102;28;20163;-51
2023/07/02 08:53:57;;;;;;;35.05;15.23;;;21.80;91.30;;;;;;4115157;28;20138;-53
2023/07/02 08:55:59;;;;;;;30.23;14.45;;;21.70;90.90;;;;;;4115157;28;20133;-53
2023/07/02 08:58:03;;;;;;;31.25;13.57;;;21.70;91.10;;;;;;4113857;28;20102;-52
2023/07/02 09:00:09;;;;;;;35.25;14.65;;;21.90;90.70;;;;;;4114558;28;20050;-53
2023/07/02 09:02:11;;;;;;;33.65;12.68;;;22.10;90.50;;;;;;4115277;28;20101;-50
2023/07/02 09:04:17;;;;;;;30.30;13.40;;;22.20;89.00;;;;;;4114981;28;20485;-51
2023/07/02 09:06:20;;;;;;;31.15;13.70;;;22.10;89.30;;;;;;4114643;28;20054;-50
2023/07/02 09:08:25;;;;;;;28.23;12.75;;;22.20;89.10;;;;;;4113974;28;20381;-51
2023/07/02 09:10:28;;;;;;;36.13;15.25;;;22.20;89.90;;;;;;4114726;28;20049;-50
2023/07/02 09:12:32;;;;;;;37.67;15.07;;;22.30;89.40;;;;;;4115236;28;20054;-53
2023/07/02 09:14:35;;;;;;;33.22;15.05;;;22.20;89.10;;;;;;4114530;28;20043;-51
2023/07/02 09:16:40;;;;;;;24.88;12.23;;;22.50;89.40;;;;;;4114001;28;20442;-54
2023/07/02 09:18:42;;;;;;;24.67;12.48;;;22.40;87.80;;;;;;4113730;28;20105;-57
2023/07/02 09:20:44;;;;;;;30.48;12.88;;;22.50;87.90;;;;;;4114618;28;20035;-53
2023/07/02 09:22:54;;;;;;;28.23;13.70;;;22.60;86.30;;;;;;4113490;28;20050;-52
2023/07/02 09:24:58;;;;;;;26.45;12.90;;;22.50;86.30;;;;;;4114885;28;20170;-52
2023/07/02 09:27:01;;;;;;;28.23;13.60;;;22.30;87.00;;;;;;4114509;28;20519;-53
2023/07/02 09:29:03;;;;;;;27.90;13.43;;;22.20;87.30;;;;;;4113861;28;20047;-53
2023/07/02 09:31:07;;;;;;;28.80;12.45;;;22.10;87.30;;;;;;4114559;28;20536;-52
2023/07/02 09:33:09;;;;;;;29.65;13.45;;;21.90;85.80;;;;;;4114678;28;20043;-54
2023/07/02 09:35:11;;;;;;;28.52;13.10;;;21.70;87.20;;;;;;4115054;28;20528;-52
2023/07/02 09:37:18;;;;;;;25.27;12.35;;;21.80;87.70;;;;;;4117927;28;20074;-54
2023/07/02 09:39:28;;;;;;;30.45;13.85;;;21.70;88.20;;;;;;4117023;28;20051;-54
2023/07/02 09:41:30;;;;;;;31.90;13.60;;;21.60;87.80;;;;;;4117917;28;20475;-51
2023/07/02 09:43:32;;;;;;;28.02;12.45;;;21.50;87.90;;;;;;4117821;28;20408;-60
2023/07/02 09:45:34;;;;;;;23.67;12.10;;;21.50;88.90;;;;;;4118074;28;20055;-52
2023/07/02 09:47:47;;;;;;;32.17;13.95;;;21.50;89.10;;;;;;4116931;28;20106;-52
2023/07/02 09:50:02;;;;;;;29.42;13.23;;;21.70;88.50;;;;;;4125140;28;20074;-54
2023/07/02 09:52:05;;;;;;;;;;;21.80;87.90;;;;;;4123837;28;20153;-50
2023/07/02 09:54:07;;;;;;;29.75;12.95;;;21.80;88.30;;;;;;4100875;29;19926;-51
2023/07/02 09:56:10;;;;;;;27.58;13.15;;;22.00;87.80;;;;;;4117619;28;20503;-51
2023/07/02 09:58:13;;;;;;;26.13;12.57;;;22.10;87.40;;;;;;4116697;28;20152;-50
2023/07/02 10:00:16;;;;;;;30.38;13.70;;;22.00;87.20;;;;;;4118036;28;20125;-50
2023/07/02 10:02:18;;;;;;;29.27;13.32;;;22.20;87.80;;;;;;4117370;28;20057;-51
2023/07/02 10:04:25;;;;;;;32.38;12.88;;;22.10;86.90;;;;;;4117988;28;20058;-51
2023/07/02 10:06:27;;;;;;;31.75;13.65;;;22.10;86.80;;;;;;4117707;28;20042;-50
2023/07/02 10:08:30;;;;;;;28.45;13.05;;;22.10;85.90;;;;;;4112988;28;20457;-51
2023/07/02 10:10:32;;;;;;;23.85;12.05;;;22.20;86.80;;;;;;4117833;28;20043;-50
2023/07/02 10:12:45;;;;;;;30.73;12.05;;;22.20;85.30;;;;;;4099979;29;20059;-50
2023/07/02 10:14:48;;;;;;;27.02;12.48;;;22.40;85.70;;;;;;4100795;28;20082;-50
2023/07/02 10:16:52;;;;;;;24.08;11.75;;;22.50;84.70;;;;;;4117541;28;20492;-50
2023/07/02 10:18:54;;;;;;;24.38;11.55;;;22.40;83.80;;;;;;4116656;28;20109;-52
2023/07/02 10:20:58;;;;;;;29.77;12.35;;;22.40;84.50;;;;;;4117500;28;20105;-52
2023/07/02 10:23:01;;;;;;;24.45;12.13;;;22.40;83.80;;;;;;4117142;28;20485;-52
2023/07/02 10:25:08;;;;;;;25.70;12.20;;;22.30;83.60;;;;;;4117367;28;20055;-53